Terminal Aerodrome Forecast
Issued by NWS Charleston, WV

Home | Current Version | Previous Version | Text Only | Print | Product List | Glossary On
Versions: 1 2 3 4 5 6 7 8 9 10 11 12 13 14 15 16 17 18 19
693
FTUS41 KRLX 241120
TAFHTS
TAF
KHTS 241120Z 2412/2512 06007KT P6SM -SHRA OVC090
     FM241500 08008KT P6SM -SHRA OVC050
     FM242000 07007KT P6SM -SHRA OVC030
     FM250500 02003KT P6SM OVC015
     FM251000 33005KT P6SM OVC008=

USA.gov is the U.S. government's official web portal to all federal, state and local government web resources and services.